sensor_id;sensor_type;location;lat;lon;timestamp;P1;durP1;ratioP1;P2;durP2;ratioP2
9997;SDS011;5038;53.064;8.624;2023-11-18T00:00:32;21.30;;;19.20;;
9997;SDS011;5038;53.064;8.624;2023-11-18T00:03:00;22.77;;;19.03;;
9997;SDS011;5038;53.064;8.624;2023-11-18T00:05:29;21.20;;;19.03;;
9997;SDS011;5038;53.064;8.624;2023-11-18T00:07:58;23.73;;;20.50;;
9997;SDS011;5038;53.064;8.624;2023-11-18T00:10:26;22.50;;;20.10;;
9997;SDS011;5038;53.064;8.624;2023-11-18T00:12:57;25.17;;;22.10;;
9997;SDS011;5038;53.064;8.624;2023-11-18T00:15:25;27.20;;;22.10;;
9997;SDS011;5038;53.064;8.624;2023-11-18T00:17:54;22.57;;;20.23;;
9997;SDS011;5038;53.064;8.624;2023-11-18T00:20:22;24.93;;;22.37;;
9997;SDS011;5038;53.064;8.624;2023-11-18T00:22:50;22.73;;;20.40;;
9997;SDS011;5038;53.064;8.624;2023-11-18T00:25:20;23.50;;;20.93;;
9997;SDS011;5038;53.064;8.624;2023-11-18T00:27:48;24.40;;;21.70;;
9997;SDS011;5038;53.064;8.624;2023-11-18T00:30:18;23.57;;;21.30;;
9997;SDS011;5038;53.064;8.624;2023-11-18T00:32:46;29.40;;;22.60;;
9997;SDS011;5038;53.064;8.624;2023-11-18T00:35:15;23.83;;;20.77;;
9997;SDS011;5038;53.064;8.624;2023-11-18T00:37:44;23.20;;;20.80;;
9997;SDS011;5038;53.064;8.624;2023-11-18T00:40:12;22.60;;;20.20;;
9997;SDS011;5038;53.064;8.624;2023-11-18T00:42:44;24.47;;;21.30;;
9997;SDS011;5038;53.064;8.624;2023-11-18T00:45:12;25.33;;;19.10;;
9997;SDS011;5038;53.064;8.624;2023-11-18T00:47:42;21.07;;;18.87;;
9997;SDS011;5038;53.064;8.624;2023-11-18T00:50:11;22.10;;;19.53;;
9997;SDS011;5038;53.064;8.624;2023-11-18T00:52:39;24.10;;;21.57;;
9997;SDS011;5038;53.064;8.624;2023-11-18T00:55:09;21.33;;;19.03;;
9997;SDS011;5038;53.064;8.624;2023-11-18T00:57:38;22.07;;;19.77;;
9997;SDS011;5038;53.064;8.624;2023-11-18T01:00:08;21.80;;;19.50;;
9997;SDS011;5038;53.064;8.624;2023-11-18T01:02:40;20.87;;;18.73;;
9997;SDS011;5038;53.064;8.624;2023-11-18T01:05:12;26.27;;;21.67;;
9997;SDS011;5038;53.064;8.624;2023-11-18T01:07:40;30.33;;;21.97;;
9997;SDS011;5038;53.064;8.624;2023-11-18T01:10:10;27.00;;;21.20;;
9997;SDS011;5038;53.064;8.624;2023-11-18T01:12:40;28.70;;;21.57;;
9997;SDS011;5038;53.064;8.624;2023-11-18T01:15:11;25.70;;;20.10;;
9997;SDS011;5038;53.064;8.624;2023-11-18T01:17:41;28.53;;;21.80;;
9997;SDS011;5038;53.064;8.624;2023-11-18T01:20:11;27.17;;;20.13;;
9997;SDS011;5038;53.064;8.624;2023-11-18T01:22:40;26.20;;;20.53;;
9997;SDS011;5038;53.064;8.624;2023-11-18T01:25:12;24.27;;;19.37;;
9997;SDS011;5038;53.064;8.624;2023-11-18T01:27:40;21.53;;;17.80;;
9997;SDS011;5038;53.064;8.624;2023-11-18T01:30:09;20.93;;;18.73;;
9997;SDS011;5038;53.064;8.624;2023-11-18T01:32:38;21.03;;;18.10;;
9997;SDS011;5038;53.064;8.624;2023-11-18T01:35:09;17.00;;;15.00;;
9997;SDS011;5038;53.064;8.624;2023-11-18T01:37:39;20.50;;;17.60;;
9997;SDS011;5038;53.064;8.624;2023-11-18T01:40:07;19.07;;;15.80;;
9997;SDS011;5038;53.064;8.624;2023-11-18T01:42:41;21.40;;;16.60;;
9997;SDS011;5038;53.064;8.624;2023-11-18T01:45:10;18.40;;;16.00;;
9997;SDS011;5038;53.064;8.624;2023-11-18T01:47:39;18.37;;;15.47;;
9997;SDS011;5038;53.064;8.624;2023-11-18T01:50:10;21.20;;;15.50;;
9997;SDS011;5038;53.064;8.624;2023-11-18T01:52:41;17.00;;;14.83;;
9997;SDS011;5038;53.064;8.624;2023-11-18T01:55:12;16.03;;;14.07;;
9997;SDS011;5038;53.064;8.624;2023-11-18T01:57:41;17.37;;;14.30;;
9997;SDS011;5038;53.064;8.624;2023-11-18T02:00:11;17.80;;;13.83;;
9997;SDS011;5038;53.064;8.624;2023-11-18T02:02:44;16.67;;;13.97;;
9997;SDS011;5038;53.064;8.624;2023-11-18T02:05:14;18.20;;;14.00;;
9997;SDS011;5038;53.064;8.624;2023-11-18T02:07:44;15.07;;;13.47;;
9997;SDS011;5038;53.064;8.624;2023-11-18T02:10:13;14.47;;;13.00;;
9997;SDS011;5038;53.064;8.624;2023-11-18T02:12:43;17.77;;;14.83;;
9997;SDS011;5038;53.064;8.624;2023-11-18T02:15:19;15.93;;;14.23;;
9997;SDS011;5038;53.064;8.624;2023-11-18T02:17:50;16.40;;;14.40;;
9997;SDS011;5038;53.064;8.624;2023-11-18T02:20:22;14.70;;;13.20;;
9997;SDS011;5038;53.064;8.624;2023-11-18T02:22:51;16.43;;;14.13;;
9997;SDS011;5038;53.064;8.624;2023-11-18T02:25:20;16.80;;;12.90;;
9997;SDS011;5038;53.064;8.624;2023-11-18T02:27:55;14.77;;;13.17;;
9997;SDS011;5038;53.064;8.624;2023-11-18T02:30:23;18.00;;;14.40;;
9997;SDS011;5038;53.064;8.624;2023-11-18T02:32:54;20.60;;;17.83;;
9997;SDS011;5038;53.064;8.624;2023-11-18T02:35:30;18.40;;;13.90;;
9997;SDS011;5038;53.064;8.624;2023-11-18T02:38:04;14.93;;;13.43;;
9997;SDS011;5038;53.064;8.624;2023-11-18T02:40:34;14.17;;;12.77;;
9997;SDS011;5038;53.064;8.624;2023-11-18T02:43:07;14.17;;;12.50;;
9997;SDS011;5038;53.064;8.624;2023-11-18T02:45:36;15.70;;;14.10;;
9997;SDS011;5038;53.064;8.624;2023-11-18T02:48:06;16.00;;;14.13;;
9997;SDS011;5038;53.064;8.624;2023-11-18T02:50:34;15.40;;;13.10;;
9997;SDS011;5038;53.064;8.624;2023-11-18T02:53:03;14.10;;;12.53;;
9997;SDS011;5038;53.064;8.624;2023-11-18T02:55:32;13.03;;;11.63;;
9997;SDS011;5038;53.064;8.624;2023-11-18T02:58:01;14.97;;;13.40;;
9997;SDS011;5038;53.064;8.624;2023-11-18T03:00:33;17.63;;;14.43;;
9997;SDS011;5038;53.064;8.624;2023-11-18T03:03:02;17.50;;;15.80;;
9997;SDS011;5038;53.064;8.624;2023-11-18T03:05:30;20.20;;;15.20;;
9997;SDS011;5038;53.064;8.624;2023-11-18T03:07:59;18.03;;;16.07;;
9997;SDS011;5038;53.064;8.624;2023-11-18T03:10:28;16.20;;;13.97;;
9997;SDS011;5038;53.064;8.624;2023-11-18T03:12:59;17.37;;;15.47;;
9997;SDS011;5038;53.064;8.624;2023-11-18T03:15:29;17.33;;;15.50;;
9997;SDS011;5038;53.064;8.624;2023-11-18T03:17:58;17.93;;;15.57;;
9997;SDS011;5038;53.064;8.624;2023-11-18T03:20:27;17.63;;;15.83;;
9997;SDS011;5038;53.064;8.624;2023-11-18T03:22:55;18.73;;;16.30;;
9997;SDS011;5038;53.064;8.624;2023-11-18T03:25:28;19.03;;;17.10;;
9997;SDS011;5038;53.064;8.624;2023-11-18T03:27:57;19.30;;;17.33;;
9997;SDS011;5038;53.064;8.624;2023-11-18T03:30:25;17.30;;;15.30;;
9997;SDS011;5038;53.064;8.624;2023-11-18T03:32:55;19.10;;;16.90;;
9997;SDS011;5038;53.064;8.624;2023-11-18T03:35:25;20.73;;;17.80;;
9997;SDS011;5038;53.064;8.624;2023-11-18T03:37:53;19.70;;;17.30;;
9997;SDS011;5038;53.064;8.624;2023-11-18T03:40:22;21.40;;;18.80;;
9997;SDS011;5038;53.064;8.624;2023-11-18T03:42:50;21.97;;;19.57;;
9997;SDS011;5038;53.064;8.624;2023-11-18T03:45:19;22.27;;;19.50;;
9997;SDS011;5038;53.064;8.624;2023-11-18T03:47:47;21.40;;;18.70;;
9997;SDS011;5038;53.064;8.624;2023-11-18T03:50:16;22.63;;;18.30;;
9997;SDS011;5038;53.064;8.624;2023-11-18T03:52:47;24.77;;;20.40;;
9997;SDS011;5038;53.064;8.624;2023-11-18T03:55:15;23.43;;;20.40;;
9997;SDS011;5038;53.064;8.624;2023-11-18T03:57:44;27.20;;;23.50;;
9997;SDS011;5038;53.064;8.624;2023-11-18T04:00:15;28.83;;;24.87;;
9997;SDS011;5038;53.064;8.624;2023-11-18T04:02:44;27.57;;;22.83;;
9997;SDS011;5038;53.064;8.624;2023-11-18T04:05:13;34.83;;;27.40;;
9997;SDS011;5038;53.064;8.624;2023-11-18T04:07:41;31.33;;;26.50;;
9997;SDS011;5038;53.064;8.624;2023-11-18T04:10:12;33.33;;;27.10;;
9997;SDS011;5038;53.064;8.624;2023-11-18T04:12:41;30.50;;;24.77;;
9997;SDS011;5038;53.064;8.624;2023-11-18T04:15:13;30.07;;;25.40;;
9997;SDS011;5038;53.064;8.624;2023-11-18T04:17:41;36.70;;;28.10;;
9997;SDS011;5038;53.064;8.624;2023-11-18T04:20:11;32.17;;;26.10;;
9997;SDS011;5038;53.064;8.624;2023-11-18T04:22:43;34.10;;;25.83;;
9997;SDS011;5038;53.064;8.624;2023-11-18T04:25:13;33.67;;;25.87;;
9997;SDS011;5038;53.064;8.624;2023-11-18T04:27:43;33.70;;;25.40;;
9997;SDS011;5038;53.064;8.624;2023-11-18T04:30:13;34.00;;;26.53;;
9997;SDS011;5038;53.064;8.624;2023-11-18T04:32:41;32.47;;;25.80;;
9997;SDS011;5038;53.064;8.624;2023-11-18T04:35:10;33.10;;;25.70;;
9997;SDS011;5038;53.064;8.624;2023-11-18T04:37:39;42.20;;;26.50;;
9997;SDS011;5038;53.064;8.624;2023-11-18T04:40:10;32.53;;;26.63;;
9997;SDS011;5038;53.064;8.624;2023-11-18T04:42:41;34.70;;;26.47;;
9997;SDS011;5038;53.064;8.624;2023-11-18T04:45:10;32.30;;;25.20;;
9997;SDS011;5038;53.064;8.624;2023-11-18T04:47:40;38.60;;;25.77;;
9997;SDS011;5038;53.064;8.624;2023-11-18T04:50:10;30.77;;;24.33;;
9997;SDS011;5038;53.064;8.624;2023-11-18T04:52:39;33.40;;;27.80;;
9997;SDS011;5038;53.064;8.624;2023-11-18T04:55:08;35.17;;;26.93;;
9997;SDS011;5038;53.064;8.624;2023-11-18T04:57:41;33.30;;;26.37;;
9997;SDS011;5038;53.064;8.624;2023-11-18T05:00:10;34.90;;;26.80;;
9997;SDS011;5038;53.064;8.624;2023-11-18T05:02:43;32.13;;;24.97;;
9997;SDS011;5038;53.064;8.624;2023-11-18T05:05:14;33.93;;;26.53;;
9997;SDS011;5038;53.064;8.624;2023-11-18T05:07:43;30.37;;;26.30;;
9997;SDS011;5038;53.064;8.624;2023-11-18T05:10:11;35.30;;;24.67;;
9997;SDS011;5038;53.064;8.624;2023-11-18T05:12:40;32.30;;;25.30;;
9997;SDS011;5038;53.064;8.624;2023-11-18T05:15:19;32.87;;;26.17;;
9997;SDS011;5038;53.064;8.624;2023-11-18T05:17:51;33.70;;;27.40;;
9997;SDS011;5038;53.064;8.624;2023-11-18T05:20:19;31.00;;;25.40;;
9997;SDS011;5038;53.064;8.624;2023-11-18T05:22:48;31.67;;;25.80;;
9997;SDS011;5038;53.064;8.624;2023-11-18T05:25:16;33.17;;;28.30;;
9997;SDS011;5038;53.064;8.624;2023-11-18T05:27:47;35.43;;;27.77;;
9997;SDS011;5038;53.064;8.624;2023-11-18T05:30:15;30.70;;;25.40;;
9997;SDS011;5038;53.064;8.624;2023-11-18T05:32:44;33.43;;;25.40;;
9997;SDS011;5038;53.064;8.624;2023-11-18T05:35:12;35.60;;;27.53;;
9997;SDS011;5038;53.064;8.624;2023-11-18T05:37:41;33.90;;;26.60;;
9997;SDS011;5038;53.064;8.624;2023-11-18T05:40:10;33.10;;;27.07;;
9997;SDS011;5038;53.064;8.624;2023-11-18T05:42:42;32.17;;;27.30;;
9997;SDS011;5038;53.064;8.624;2023-11-18T05:45:14;35.77;;;27.03;;
9997;SDS011;5038;53.064;8.624;2023-11-18T05:47:54;37.30;;;30.27;;
9997;SDS011;5038;53.064;8.624;2023-11-18T05:50:23;36.80;;;30.83;;
9997;SDS011;5038;53.064;8.624;2023-11-18T05:52:53;39.13;;;29.97;;
9997;SDS011;5038;53.064;8.624;2023-11-18T05:55:21;36.30;;;29.53;;
9997;SDS011;5038;53.064;8.624;2023-11-18T05:57:50;34.93;;;29.00;;
9997;SDS011;5038;53.064;8.624;2023-11-18T06:00:20;38.53;;;33.40;;
9997;SDS011;5038;53.064;8.624;2023-11-18T06:03:01;39.57;;;29.40;;
9997;SDS011;5038;53.064;8.624;2023-11-18T06:05:30;39.80;;;32.20;;
9997;SDS011;5038;53.064;8.624;2023-11-18T06:08:01;38.70;;;30.33;;
9997;SDS011;5038;53.064;8.624;2023-11-18T06:10:30;42.10;;;31.20;;
9997;SDS011;5038;53.064;8.624;2023-11-18T06:12:59;39.87;;;31.07;;
9997;SDS011;5038;53.064;8.624;2023-11-18T06:15:32;39.30;;;30.27;;
9997;SDS011;5038;53.064;8.624;2023-11-18T06:18:02;38.17;;;30.57;;
9997;SDS011;5038;53.064;8.624;2023-11-18T06:20:33;42.80;;;32.53;;
9997;SDS011;5038;53.064;8.624;2023-11-18T06:23:05;42.03;;;33.07;;
9997;SDS011;5038;53.064;8.624;2023-11-18T06:25:33;44.80;;;32.00;;
9997;SDS011;5038;53.064;8.624;2023-11-18T06:28:02;43.80;;;33.60;;
9997;SDS011;5038;53.064;8.624;2023-11-18T06:30:35;39.30;;;29.90;;
9997;SDS011;5038;53.064;8.624;2023-11-18T06:33:05;45.30;;;33.07;;
9997;SDS011;5038;53.064;8.624;2023-11-18T06:35:33;48.53;;;38.23;;
9997;SDS011;5038;53.064;8.624;2023-11-18T06:38:02;46.30;;;36.37;;
9997;SDS011;5038;53.064;8.624;2023-11-18T06:40:30;52.03;;;36.93;;
9997;SDS011;5038;53.064;8.624;2023-11-18T06:42:59;52.13;;;35.60;;
9997;SDS011;5038;53.064;8.624;2023-11-18T06:45:29;50.00;;;35.73;;
9997;SDS011;5038;53.064;8.624;2023-11-18T06:48:00;48.50;;;34.53;;
9997;SDS011;5038;53.064;8.624;2023-11-18T06:50:28;47.90;;;35.67;;
9997;SDS011;5038;53.064;8.624;2023-11-18T06:52:58;52.67;;;36.10;;
9997;SDS011;5038;53.064;8.624;2023-11-18T06:55:27;48.33;;;36.93;;
9997;SDS011;5038;53.064;8.624;2023-11-18T06:57:56;48.60;;;36.50;;
9997;SDS011;5038;53.064;8.624;2023-11-18T07:00:24;49.40;;;38.43;;
9997;SDS011;5038;53.064;8.624;2023-11-18T07:02:54;55.10;;;38.30;;
9997;SDS011;5038;53.064;8.624;2023-11-18T07:05:25;55.73;;;40.20;;
9997;SDS011;5038;53.064;8.624;2023-11-18T07:07:54;49.33;;;36.50;;
9997;SDS011;5038;53.064;8.624;2023-11-18T07:10:22;65.47;;;40.50;;
9997;SDS011;5038;53.064;8.624;2023-11-18T07:12:52;57.10;;;39.20;;
9997;SDS011;5038;53.064;8.624;2023-11-18T07:15:20;58.17;;;39.00;;
9997;SDS011;5038;53.064;8.624;2023-11-18T07:17:48;53.47;;;38.80;;
9997;SDS011;5038;53.064;8.624;2023-11-18T07:20:22;52.37;;;39.20;;
9997;SDS011;5038;53.064;8.624;2023-11-18T07:22:51;63.00;;;43.30;;
9997;SDS011;5038;53.064;8.624;2023-11-18T07:25:20;59.00;;;44.30;;
9997;SDS011;5038;53.064;8.624;2023-11-18T07:27:49;59.63;;;42.80;;
9997;SDS011;5038;53.064;8.624;2023-11-18T07:30:18;72.10;;;48.23;;
9997;SDS011;5038;53.064;8.624;2023-11-18T07:32:46;65.87;;;49.10;;
9997;SDS011;5038;53.064;8.624;2023-11-18T07:35:17;69.70;;;49.23;;
9997;SDS011;5038;53.064;8.624;2023-11-18T07:37:45;66.43;;;46.60;;
9997;SDS011;5038;53.064;8.624;2023-11-18T07:40:15;70.67;;;48.50;;
9997;SDS011;5038;53.064;8.624;2023-11-18T07:42:49;68.93;;;44.20;;
9997;SDS011;5038;53.064;8.624;2023-11-18T07:45:17;73.60;;;43.60;;
9997;SDS011;5038;53.064;8.624;2023-11-18T07:47:45;68.87;;;44.73;;
9997;SDS011;5038;53.064;8.624;2023-11-18T07:50:15;68.83;;;42.83;;
9997;SDS011;5038;53.064;8.624;2023-11-18T07:52:46;69.10;;;45.43;;
9997;SDS011;5038;53.064;8.624;2023-11-18T07:55:16;71.43;;;44.83;;
9997;SDS011;5038;53.064;8.624;2023-11-18T07:57:45;73.80;;;51.67;;
9997;SDS011;5038;53.064;8.624;2023-11-18T08:00:13;78.37;;;51.07;;
9997;SDS011;5038;53.064;8.624;2023-11-18T08:02:42;75.80;;;49.60;;
9997;SDS011;5038;53.064;8.624;2023-11-18T08:05:12;71.10;;;48.67;;
9997;SDS011;5038;53.064;8.624;2023-11-18T08:07:41;79.73;;;47.03;;
9997;SDS011;5038;53.064;8.624;2023-11-18T08:10:12;73.13;;;45.10;;
9997;SDS011;5038;53.064;8.624;2023-11-18T08:12:47;71.47;;;46.00;;
9997;SDS011;5038;53.064;8.624;2023-11-18T08:15:18;81.43;;;50.37;;
9997;SDS011;5038;53.064;8.624;2023-11-18T08:17:46;57.53;;;39.07;;
9997;SDS011;5038;53.064;8.624;2023-11-18T08:20:15;74.70;;;47.83;;
9997;SDS011;5038;53.064;8.624;2023-11-18T08:22:43;75.90;;;51.73;;
9997;SDS011;5038;53.064;8.624;2023-11-18T08:25:12;75.43;;;49.77;;
9997;SDS011;5038;53.064;8.624;2023-11-18T08:27:43;76.70;;;47.77;;
9997;SDS011;5038;53.064;8.624;2023-11-18T08:30:14;56.43;;;37.37;;
9997;SDS011;5038;53.064;8.624;2023-11-18T08:32:45;69.17;;;42.60;;
9997;SDS011;5038;53.064;8.624;2023-11-18T08:35:14;71.17;;;45.53;;
9997;SDS011;5038;53.064;8.624;2023-11-18T08:37:43;67.10;;;43.80;;
9997;SDS011;5038;53.064;8.624;2023-11-18T08:40:12;64.87;;;42.43;;
9997;SDS011;5038;53.064;8.624;2023-11-18T08:42:43;71.73;;;41.83;;
9997;SDS011;5038;53.064;8.624;2023-11-18T08:45:19;62.77;;;41.50;;
9997;SDS011;5038;53.064;8.624;2023-11-18T08:47:53;65.60;;;40.20;;
9997;SDS011;5038;53.064;8.624;2023-11-18T08:50:22;57.00;;;41.33;;
9997;SDS011;5038;53.064;8.624;2023-11-18T08:52:51;60.73;;;44.13;;
9997;SDS011;5038;53.064;8.624;2023-11-18T08:55:26;65.73;;;41.93;;
9997;SDS011;5038;53.064;8.624;2023-11-18T08:58:10;60.20;;;41.33;;
9997;SDS011;5038;53.064;8.624;2023-11-18T09:00:49;63.30;;;40.10;;
9997;SDS011;5038;53.064;8.624;2023-11-18T09:03:22;62.53;;;43.90;;
9997;SDS011;5038;53.064;8.624;2023-11-18T09:05:56;65.47;;;43.20;;
9997;SDS011;5038;53.064;8.624;2023-11-18T09:08:26;62.87;;;41.33;;
9997;SDS011;5038;53.064;8.624;2023-11-18T09:10:56;57.80;;;40.53;;
9997;SDS011;5038;53.064;8.624;2023-11-18T09:13:24;55.70;;;39.10;;
9997;SDS011;5038;53.064;8.624;2023-11-18T09:15:57;57.70;;;38.50;;
9997;SDS011;5038;53.064;8.624;2023-11-18T09:18:26;55.10;;;37.93;;
9997;SDS011;5038;53.064;8.624;2023-11-18T09:20:57;56.30;;;38.93;;
9997;SDS011;5038;53.064;8.624;2023-11-18T09:23:28;55.70;;;40.67;;
9997;SDS011;5038;53.064;8.624;2023-11-18T09:25:58;51.23;;;38.20;;
9997;SDS011;5038;53.064;8.624;2023-11-18T09:28:27;50.63;;;37.37;;
9997;SDS011;5038;53.064;8.624;2023-11-18T09:30:57;57.87;;;40.87;;
9997;SDS011;5038;53.064;8.624;2023-11-18T09:33:27;48.83;;;38.83;;
9997;SDS011;5038;53.064;8.624;2023-11-18T09:36:00;51.97;;;43.47;;
9997;SDS011;5038;53.064;8.624;2023-11-18T09:38:29;56.13;;;40.30;;
9997;SDS011;5038;53.064;8.624;2023-11-18T09:40:59;56.70;;;40.90;;
9997;SDS011;5038;53.064;8.624;2023-11-18T09:43:29;54.67;;;37.37;;
9997;SDS011;5038;53.064;8.624;2023-11-18T09:46:07;51.33;;;40.10;;
9997;SDS011;5038;53.064;8.624;2023-11-18T09:48:48;52.17;;;40.30;;
9997;SDS011;5038;53.064;8.624;2023-11-18T09:51:22;53.00;;;40.47;;
9997;SDS011;5038;53.064;8.624;2023-11-18T09:53:58;53.43;;;37.90;;
9997;SDS011;5038;53.064;8.624;2023-11-18T09:56:30;47.27;;;37.37;;
9997;SDS011;5038;53.064;8.624;2023-11-18T09:59:07;51.30;;;41.00;;
9997;SDS011;5038;53.064;8.624;2023-11-18T10:01:44;51.03;;;39.30;;
9997;SDS011;5038;53.064;8.624;2023-11-18T10:04:20;46.60;;;36.13;;
9997;SDS011;5038;53.064;8.624;2023-11-18T10:06:49;45.97;;;36.60;;
9997;SDS011;5038;53.064;8.624;2023-11-18T10:09:20;46.40;;;36.53;;
9997;SDS011;5038;53.064;8.624;2023-11-18T10:11:55;48.37;;;35.83;;
9997;SDS011;5038;53.064;8.624;2023-11-18T10:14:32;42.23;;;34.60;;
9997;SDS011;5038;53.064;8.624;2023-11-18T10:17:06;48.13;;;36.63;;
9997;SDS011;5038;53.064;8.624;2023-11-18T10:22:24;47.37;;;36.40;;
9997;SDS011;5038;53.064;8.624;2023-11-18T10:24:54;45.10;;;35.37;;
9997;SDS011;5038;53.064;8.624;2023-11-18T10:27:24;44.60;;;34.90;;
9997;SDS011;5038;53.064;8.624;2023-11-18T10:29:57;47.10;;;34.90;;
9997;SDS011;5038;53.064;8.624;2023-11-18T10:32:30;43.17;;;32.83;;
9997;SDS011;5038;53.064;8.624;2023-11-18T10:35:03;36.07;;;29.00;;
9997;SDS011;5038;53.064;8.624;2023-11-18T10:37:33;44.70;;;39.27;;
9997;SDS011;5038;53.064;8.624;2023-11-18T10:40:10;43.40;;;33.83;;
9997;SDS011;5038;53.064;8.624;2023-11-18T10:42:41;46.60;;;35.23;;
9997;SDS011;5038;53.064;8.624;2023-11-18T10:45:15;40.40;;;32.23;;
9997;SDS011;5038;53.064;8.624;2023-11-18T10:47:52;46.47;;;38.63;;
9997;SDS011;5038;53.064;8.624;2023-11-18T10:50:24;45.67;;;37.17;;
9997;SDS011;5038;53.064;8.624;2023-11-18T10:52:59;45.90;;;37.97;;
9997;SDS011;5038;53.064;8.624;2023-11-18T10:55:35;45.60;;;37.40;;
9997;SDS011;5038;53.064;8.624;2023-11-18T10:58:04;47.90;;;37.60;;
9997;SDS011;5038;53.064;8.624;2023-11-18T11:03:28;46.27;;;37.83;;
9997;SDS011;5038;53.064;8.624;2023-11-18T11:06:00;46.30;;;37.80;;
9997;SDS011;5038;53.064;8.624;2023-11-18T11:08:43;46.13;;;37.50;;
9997;SDS011;5038;53.064;8.624;2023-11-18T11:11:14;46.50;;;36.93;;
9997;SDS011;5038;53.064;8.624;2023-11-18T11:13:44;48.80;;;40.80;;
9997;SDS011;5038;53.064;8.624;2023-11-18T11:16:18;45.93;;;37.53;;
9997;SDS011;5038;53.064;8.624;2023-11-18T11:18:54;50.13;;;38.87;;
9997;SDS011;5038;53.064;8.624;2023-11-18T11:21:25;47.53;;;38.70;;
9997;SDS011;5038;53.064;8.624;2023-11-18T11:23:57;56.27;;;39.23;;
9997;SDS011;5038;53.064;8.624;2023-11-18T11:26:38;45.20;;;35.90;;
9997;SDS011;5038;53.064;8.624;2023-11-18T11:29:22;46.23;;;36.57;;
9997;SDS011;5038;53.064;8.624;2023-11-18T11:31:59;47.77;;;39.00;;
9997;SDS011;5038;53.064;8.624;2023-11-18T11:34:40;48.63;;;39.83;;
9997;SDS011;5038;53.064;8.624;2023-11-18T11:37:20;51.00;;;40.87;;
9997;SDS011;5038;53.064;8.624;2023-11-18T11:39:53;51.20;;;41.00;;
9997;SDS011;5038;53.064;8.624;2023-11-18T11:42:25;47.43;;;40.50;;
9997;SDS011;5038;53.064;8.624;2023-11-18T11:44:54;49.30;;;41.23;;
9997;SDS011;5038;53.064;8.624;2023-11-18T11:47:25;47.60;;;37.80;;
9997;SDS011;5038;53.064;8.624;2023-11-18T11:50:10;49.20;;;38.87;;
9997;SDS011;5038;53.064;8.624;2023-11-18T11:52:50;48.47;;;40.33;;
9997;SDS011;5038;53.064;8.624;2023-11-18T11:55:28;47.73;;;39.63;;
9997;SDS011;5038;53.064;8.624;2023-11-18T11:58:03;48.00;;;41.07;;
9997;SDS011;5038;53.064;8.624;2023-11-18T12:00:33;47.53;;;37.70;;
9997;SDS011;5038;53.064;8.624;2023-11-18T12:03:01;50.33;;;43.37;;
9997;SDS011;5038;53.064;8.624;2023-11-18T12:05:33;44.73;;;38.03;;
9997;SDS011;5038;53.064;8.624;2023-11-18T12:08:01;50.27;;;41.43;;
9997;SDS011;5038;53.064;8.624;2023-11-18T12:10:31;48.80;;;40.30;;
9997;SDS011;5038;53.064;8.624;2023-11-18T12:13:08;51.60;;;39.70;;
9997;SDS011;5038;53.064;8.624;2023-11-18T12:15:50;52.60;;;40.73;;
9997;SDS011;5038;53.064;8.624;2023-11-18T12:18:24;49.73;;;40.40;;
9997;SDS011;5038;53.064;8.624;2023-11-18T12:20:54;49.90;;;41.73;;
9997;SDS011;5038;53.064;8.624;2023-11-18T12:23:24;46.60;;;39.57;;
9997;SDS011;5038;53.064;8.624;2023-11-18T12:25:53;51.43;;;41.77;;
9997;SDS011;5038;53.064;8.624;2023-11-18T12:28:27;49.70;;;40.73;;
9997;SDS011;5038;53.064;8.624;2023-11-18T12:31:02;48.63;;;42.07;;
9997;SDS011;5038;53.064;8.624;2023-11-18T12:36:44;47.50;;;40.17;;
9997;SDS011;5038;53.064;8.624;2023-11-18T12:39:45;46.17;;;37.13;;
9997;SDS011;5038;53.064;8.624;2023-11-18T12:42:51;53.40;;;39.93;;
9997;SDS011;5038;53.064;8.624;2023-11-18T12:45:36;50.60;;;40.47;;
9997;SDS011;5038;53.064;8.624;2023-11-18T12:48:26;45.57;;;37.63;;
9997;SDS011;5038;53.064;8.624;2023-11-18T12:50:59;47.77;;;38.47;;
9997;SDS011;5038;53.064;8.624;2023-11-18T12:53:29;49.47;;;38.47;;
9997;SDS011;5038;53.064;8.624;2023-11-18T12:55:57;45.30;;;37.97;;
9997;SDS011;5038;53.064;8.624;2023-11-18T12:58:28;43.40;;;36.43;;
9997;SDS011;5038;53.064;8.624;2023-11-18T13:01:00;47.43;;;38.10;;
9997;SDS011;5038;53.064;8.624;2023-11-18T13:03:29;41.37;;;33.87;;
9997;SDS011;5038;53.064;8.624;2023-11-18T13:05:58;41.83;;;37.33;;
9997;SDS011;5038;53.064;8.624;2023-11-18T13:08:26;41.77;;;35.60;;
9997;SDS011;5038;53.064;8.624;2023-11-18T13:10:56;42.17;;;34.73;;
9997;SDS011;5038;53.064;8.624;2023-11-18T13:13:29;40.17;;;34.20;;
9997;SDS011;5038;53.064;8.624;2023-11-18T13:16:00;46.20;;;37.93;;
9997;SDS011;5038;53.064;8.624;2023-11-18T13:18:40;44.67;;;38.00;;
9997;SDS011;5038;53.064;8.624;2023-11-18T13:21:13;29.97;;;26.40;;
9997;SDS011;5038;53.064;8.624;2023-11-18T13:23:45;39.63;;;33.90;;
9997;SDS011;5038;53.064;8.624;2023-11-18T13:26:16;49.10;;;40.87;;
9997;SDS011;5038;53.064;8.624;2023-11-18T13:28:46;47.57;;;41.23;;
9997;SDS011;5038;53.064;8.624;2023-11-18T13:31:17;41.07;;;34.70;;
9997;SDS011;5038;53.064;8.624;2023-11-18T13:33:46;39.77;;;32.00;;
9997;SDS011;5038;53.064;8.624;2023-11-18T13:36:15;38.30;;;32.33;;
9997;SDS011;5038;53.064;8.624;2023-11-18T13:38:47;33.63;;;30.03;;
9997;SDS011;5038;53.064;8.624;2023-11-18T13:41:30;38.43;;;30.70;;
9997;SDS011;5038;53.064;8.624;2023-11-18T13:43:59;34.37;;;28.33;;
9997;SDS011;5038;53.064;8.624;2023-11-18T13:46:29;32.60;;;29.10;;
9997;SDS011;5038;53.064;8.624;2023-11-18T13:48:57;34.70;;;30.10;;
9997;SDS011;5038;53.064;8.624;2023-11-18T13:51:26;39.97;;;30.60;;
9997;SDS011;5038;53.064;8.624;2023-11-18T13:53:54;32.70;;;28.70;;
9997;SDS011;5038;53.064;8.624;2023-11-18T13:56:23;34.90;;;28.57;;
9997;SDS011;5038;53.064;8.624;2023-11-18T13:58:55;31.93;;;28.43;;
9997;SDS011;5038;53.064;8.624;2023-11-18T14:01:25;36.60;;;32.40;;
9997;SDS011;5038;53.064;8.624;2023-11-18T14:03:54;35.37;;;28.20;;
9997;SDS011;5038;53.064;8.624;2023-11-18T14:06:28;32.70;;;26.40;;
9997;SDS011;5038;53.064;8.624;2023-11-18T14:08:58;30.00;;;26.70;;
9997;SDS011;5038;53.064;8.624;2023-11-18T14:11:27;33.23;;;25.90;;
9997;SDS011;5038;53.064;8.624;2023-11-18T14:13:57;32.83;;;26.17;;
9997;SDS011;5038;53.064;8.624;2023-11-18T14:16:26;32.83;;;27.50;;
9997;SDS011;5038;53.064;8.624;2023-11-18T14:18:54;33.83;;;27.17;;
9997;SDS011;5038;53.064;8.624;2023-11-18T14:21:22;34.10;;;27.20;;
9997;SDS011;5038;53.064;8.624;2023-11-18T14:23:52;32.10;;;26.87;;
9997;SDS011;5038;53.064;8.624;2023-11-18T14:26:25;29.87;;;25.10;;
9997;SDS011;5038;53.064;8.624;2023-11-18T14:28:55;31.53;;;25.47;;
9997;SDS011;5038;53.064;8.624;2023-11-18T14:31:26;31.20;;;24.40;;
9997;SDS011;5038;53.064;8.624;2023-11-18T14:33:55;31.07;;;26.90;;
9997;SDS011;5038;53.064;8.624;2023-11-18T14:36:25;32.73;;;27.00;;
9997;SDS011;5038;53.064;8.624;2023-11-18T14:38:55;32.27;;;26.53;;
9997;SDS011;5038;53.064;8.624;2023-11-18T14:41:25;31.50;;;25.10;;
9997;SDS011;5038;53.064;8.624;2023-11-18T14:43:55;33.93;;;27.10;;
9997;SDS011;5038;53.064;8.624;2023-11-18T14:46:25;30.57;;;25.80;;
9997;SDS011;5038;53.064;8.624;2023-11-18T14:48:54;28.57;;;25.47;;
9997;SDS011;5038;53.064;8.624;2023-11-18T14:51:22;30.97;;;24.33;;
9997;SDS011;5038;53.064;8.624;2023-11-18T14:53:52;31.63;;;24.33;;
9997;SDS011;5038;53.064;8.624;2023-11-18T14:56:20;29.47;;;24.37;;
9997;SDS011;5038;53.064;8.624;2023-11-18T14:58:48;29.20;;;23.03;;
9997;SDS011;5038;53.064;8.624;2023-11-18T15:01:17;27.47;;;24.53;;
9997;SDS011;5038;53.064;8.624;2023-11-18T15:03:48;29.07;;;24.00;;
9997;SDS011;5038;53.064;8.624;2023-11-18T15:06:23;28.40;;;24.37;;
9997;SDS011;5038;53.064;8.624;2023-11-18T15:08:52;30.07;;;25.50;;
9997;SDS011;5038;53.064;8.624;2023-11-18T15:11:23;32.00;;;24.43;;
9997;SDS011;5038;53.064;8.624;2023-11-18T15:13:52;31.13;;;24.27;;
9997;SDS011;5038;53.064;8.624;2023-11-18T15:16:22;30.50;;;22.93;;
9997;SDS011;5038;53.064;8.624;2023-11-18T15:18:51;32.00;;;23.97;;